Flight Number: AVA4151 Duration: 3:30
Departure: Mandalay intl Airport (VYMD) at 01:00 Distance: 1310.24 Nm
Arrival: Singapore Changi Airport (WSSS) at 04:30 Equipment: B737

Weather Information
Station name not available Apr 14, 2024 - 10:30 PM EDT / 2024.04.15 0230 UTC
Wind: from the SE (140 degrees) at 2 MPH (2 KT):0
Visibility: 3 mile(s):0
Sky conditions: mostly clear Weather: haze Temperature: 89 F (32 C) Dew Point: 68 F (20 C) Relative Humidity: 49% Pressure (altimeter): 29.83 in. Hg (1010 hPa)
ob: VYMD 150230Z 14002KT 6000 HZ FEW025 32/20 Q1010 cycle: 2
Sunrise: 23:18 Sunset: 11:53 (UTC)

Singapore / Changi Airport, Singapore (WSSS) 01-22N 103-59E 16M Apr 14, 2024 - 11:00 PM EDT / 2024.04.15 0300 UTC
Wind: from the NE (040 degrees) at 8 MPH (7 KT) (direction variable):0
Visibility: greater than 7 mile(s):0
Sky conditions: mostly cloudy Weather: light rain Temperature: 82 F (28 C) Dew Point: 77 F (25 C) Relative Humidity: 83% Pressure (altimeter): 29.85 in. Hg (1011 hPa)
ob: WSSS 150300Z 04007KT 010V070 9999 -RA FEW018 BKN160 28/25 Q1011 NOSIG cycle: 3
Sunrise: 23:01 Sunset: 11:05 (UTC)

TAF:2024/04/14 18:08 TAF WSSS 141700Z 1418/1600 04008KT 9999 FEW015 SCT020 TEMPO 1506/1509 3000 TSRA FEW012CB BKN015

This route has never been flown.

Route map